Time;durP1;ratioP1;P1;durP2;ratioP2;P2;SDS_P1;SDS_P2;PMS_P1;PMS_P2;Temp;Humidity;BMP_temperature;BMP_pressure;BME280_temperature;BME280_humidity;BME280_pressure;Samples;Min_cycle;Max_cycle;Signal;HPM_P1;HPM_P2
2021/11/02 00:01:11;;;;;;;3.00;2.70;;;;;;;10.43;100.00;95081.66;5002251;28;20065;-59
2021/11/02 00:03:40;;;;;;;3.50;2.63;;;;;;;10.52;100.00;95076.28;5004549;28;20085;-56
2021/11/02 00:06:09;;;;;;;3.05;2.60;;;;;;;10.15;100.00;95080.50;5006740;28;20070;-55
2021/11/02 00:08:37;;;;;;;4.00;2.80;;;;;;;10.52;100.00;95087.66;4992222;28;20112;-58
2021/11/02 00:11:06;;;;;;;3.50;2.70;;;;;;;10.71;100.00;95077.63;4989948;28;20070;-53
2021/11/02 00:13:51;;;;;;;4.17;2.60;;;;;;;10.95;100.00;95076.56;4991142;28;20066;-59
2021/11/02 00:16:22;;;;;;;5.40;2.63;;;;;;;10.85;100.00;95076.81;5005913;28;20065;-57
2021/11/02 00:18:59;;;;;;;3.05;2.80;;;;;;;11.11;100.00;95074.56;5009684;28;20814;-59
2021/11/02 00:21:31;;;;;;;4.43;2.95;;;;;;;10.86;100.00;95081.91;5004157;28;20084;-60
2021/11/02 00:24:09;;;;;;;4.68;2.80;;;;;;;10.98;100.00;95078.81;4995441;28;20294;-58
2021/11/02 00:26:38;;;;;;;2.95;2.63;;;;;;;10.93;100.00;95079.34;4999071;28;20138;-58
2021/11/02 00:29:08;;;;;;;4.20;2.55;;;;;;;11.02;100.00;95069.56;4996769;28;20555;-58
2021/11/02 00:31:37;;;;;;;3.80;2.72;;;;;;;10.97;100.00;95072.72;5002825;28;20069;-60
2021/11/02 00:34:05;;;;;;;3.25;2.60;;;;;;;11.08;100.00;95064.38;4995607;28;20069;-59
2021/11/02 00:36:34;;;;;;;4.55;2.70;;;;;;;10.89;100.00;95060.44;5002532;28;20476;-51
2021/11/02 00:39:03;;;;;;;3.72;2.55;;;;;;;10.98;100.00;95066.47;4997138;28;20349;-55
2021/11/02 00:41:31;;;;;;;3.65;2.40;;;;;;;11.28;100.00;95064.63;4994481;28;20515;-57
2021/11/02 00:44:00;;;;;;;3.75;2.55;;;;;;;11.23;100.00;95067.00;4993635;28;20054;-58
2021/11/02 00:46:33;;;;;;;3.03;2.30;;;;;;;11.11;100.00;95066.66;5021596;28;20065;-56
2021/11/02 00:49:04;;;;;;;3.17;2.40;;;;;;;10.87;100.00;95061.63;5005963;28;20070;-56
2021/11/02 00:51:33;;;;;;;4.30;2.50;;;;;;;10.88;100.00;95055.34;5008436;28;20068;-50
2021/11/02 00:54:01;;;;;;;2.30;2.10;;;;;;;10.63;100.00;95055.59;4997353;28;20300;-52
2021/11/02 00:56:29;;;;;;;2.50;2.30;;;;;;;10.45;100.00;95055.91;4999151;28;20065;-53
2021/11/02 00:58:58;;;;;;;2.78;2.47;;;;;;;10.43;100.00;95055.28;5006802;28;20061;-57
2021/11/02 01:01:26;;;;;;;2.88;2.50;;;;;;;10.77;100.00;95059.25;5007051;28;20062;-56
2021/11/02 01:03:57;;;;;;;3.38;2.50;;;;;;;10.61;100.00;95059.41;4995147;28;20054;-57
2021/11/02 01:06:26;;;;;;;2.78;2.40;;;;;;;10.74;100.00;95053.53;5001281;28;20081;-55
2021/11/02 01:08:54;;;;;;;3.53;3.08;;;;;;;11.01;100.00;95052.06;4994080;28;20513;-57
2021/11/02 01:11:23;;;;;;;3.25;2.30;;;;;;;10.90;100.00;95046.25;5031820;28;20069;-58
2021/11/02 01:13:52;;;;;;;3.22;2.40;;;;;;;10.84;100.00;95035.59;5001678;28;20070;-55
2021/11/02 01:16:24;;;;;;;2.33;2.10;;;;;;;10.64;100.00;95035.34;5004185;28;20111;-54
2021/11/02 01:18:53;;;;;;;2.30;2.10;;;;;;;10.88;100.00;95026.34;5005090;28;20081;-54
2021/11/02 01:21:23;;;;;;;3.05;2.30;;;;;;;10.71;100.00;95027.53;5010857;28;20085;-58
2021/11/02 01:23:51;;;;;;;3.58;2.30;;;;;;;10.77;100.00;95026.78;5006709;28;20057;-58
2021/11/02 01:26:20;;;;;;;2.78;2.50;;;;;;;10.35;100.00;95036.09;5008197;28;20088;-52
2021/11/02 01:28:48;;;;;;;2.92;2.22;;;;;;;10.17;100.00;95034.56;4997028;28;20069;-56
2021/11/02 01:31:17;;;;;;;3.58;2.67;;;;;;;10.20;100.00;95023.66;5022090;28;20073;-55
2021/11/02 01:33:46;;;;;;;2.50;2.30;;;;;;;10.30;100.00;95025.28;4994276;28;20045;-54
2021/11/02 01:36:15;;;;;;;3.63;2.25;;;;;;;10.44;100.00;95020.03;4998611;28;20108;-56
2021/11/02 01:38:45;;;;;;;3.05;2.13;;;;;;;10.05;100.00;95014.91;5000085;28;20519;-54
2021/11/02 01:41:17;;;;;;;;;;;;;;;10.17;100.00;95013.47;5020348;28;20062;-54
2021/11/02 01:43:46;;;;;;;2.70;2.30;;;;;;;10.07;100.00;95012.91;4994072;28;19956;-55
2021/11/02 01:46:23;;;;;;;2.40;2.20;;;;;;;10.03;100.00;95011.63;5011418;28;20116;-55
2021/11/02 01:48:52;;;;;;;2.40;2.20;;;;;;;10.29;100.00;95002.53;5004117;28;20128;-56
2021/11/02 01:51:22;;;;;;;2.23;2.03;;;;;;;10.37;100.00;94999.84;5007505;28;20077;-54
2021/11/02 01:53:52;;;;;;;2.20;2.05;;;;;;;10.52;100.00;95005.94;5006729;28;20062;-54
2021/11/02 01:56:21;;;;;;;6.45;2.38;;;;;;;10.56;100.00;95001.94;5006147;28;20077;-53
2021/11/02 01:58:52;;;;;;;2.45;2.25;;;;;;;10.47;100.00;95012.78;5005037;28;20061;-57
2021/11/02 02:01:32;;;;;;;2.40;2.20;;;;;;;10.53;100.00;95012.03;5006642;28;20073;-54
2021/11/02 02:04:11;;;;;;;2.50;2.30;;;;;;;10.28;100.00;95016.72;4994761;28;20070;-54
2021/11/02 02:06:45;;;;;;;2.58;2.20;;;;;;;10.43;100.00;95023.66;5001125;28;20077;-57
2021/11/02 02:09:20;;;;;;;3.17;2.38;;;;;;;10.62;100.00;95010.97;4994418;28;20074;-56
2021/11/02 02:11:55;;;;;;;2.42;2.20;;;;;;;10.38;100.00;95017.28;5000970;28;20074;-57
2021/11/02 02:14:29;;;;;;;3.60;2.20;;;;;;;10.57;100.00;95013.34;4998232;28;20058;-53
2021/11/02 02:17:00;;;;;;;2.45;2.20;;;;;;;10.70;100.00;95002.94;4994498;28;20074;-55
2021/11/02 02:19:40;;;;;;;2.20;2.10;;;;;;;10.44;100.00;94998.94;5003522;28;20073;-56
2021/11/02 02:22:20;;;;;;;2.50;2.30;;;;;;;10.59;100.00;95006.84;4993555;28;20089;-54
2021/11/02 02:25:01;;;;;;;2.38;2.17;;;;;;;10.74;100.00;94998.16;4999011;28;20078;-57
2021/11/02 02:27:58;;;;;;;2.30;2.20;;;;;;;10.74;100.00;94998.97;5002083;28;20068;-59
2021/11/02 02:30:28;;;;;;;3.25;2.50;;;;;;;10.66;100.00;94993.78;4994076;28;20385;-52
2021/11/02 02:32:56;;;;;;;3.38;2.22;;;;;;;10.74;100.00;94992.91;5002729;28;20068;-56
2021/11/02 02:35:27;;;;;;;3.28;2.60;;;;;;;10.49;100.00;94995.75;4996983;28;20062;-54
2021/11/02 02:37:56;;;;;;;2.90;2.40;;;;;;;10.56;100.00;94995.84;4997722;28;20455;-53
2021/11/02 02:40:25;;;;;;;2.53;2.33;;;;;;;10.35;100.00;94988.66;4992072;28;20492;-54
2021/11/02 02:42:54;;;;;;;3.83;2.50;;;;;;;9.87;100.00;94983.59;5041304;28;20120;-57
2021/11/02 02:45:25;;;;;;;2.50;2.40;;;;;;;9.84;100.00;94997.13;5026495;28;20500;-57
2021/11/02 02:47:54;;;;;;;3.75;2.40;;;;;;;10.04;100.00;94997.44;5003121;28;20509;-53
2021/11/02 02:50:22;;;;;;;3.95;2.50;;;;;;;9.86;100.00;94997.75;4989947;28;20546;-52
2021/11/02 02:52:52;;;;;;;3.05;2.60;;;;;;;9.89;100.00;94994.78;5008786;28;20053;-55
2021/11/02 02:55:21;;;;;;;2.67;2.47;;;;;;;9.49;100.00;94993.25;5005353;28;20496;-59
2021/11/02 02:57:51;;;;;;;3.13;2.83;;;;;;;9.25;100.00;94999.47;5003159;28;20077;-57
2021/11/02 03:00:19;;;;;;;4.18;2.70;;;;;;;9.59;100.00;94998.28;4981831;28;20074;-55
2021/11/02 03:02:51;;;;;;;4.70;2.60;;;;;;;8.97;100.00;94997.28;4984382;28;20631;-58
2021/11/02 03:05:21;;;;;;;4.53;2.80;;;;;;;9.35;100.00;94994.00;4986741;28;20117;-55
2021/11/02 03:07:49;;;;;;;2.83;2.63;;;;;;;9.42;100.00;94995.75;4996604;28;20076;-56
2021/11/02 03:10:19;;;;;;;3.58;2.80;;;;;;;9.37;100.00;94992.00;5005605;28;20068;-56
2021/11/02 03:12:51;;;;;;;2.90;2.70;;;;;;;9.56;100.00;94988.91;4999331;28;20085;-52
2021/11/02 03:18:27;;;;;;;4.22;3.17;;;;;;;9.81;100.00;94988.78;4963998;28;20074;-60
2021/11/02 03:43:59;;;;;;;3.85;3.28;;;;;;;9.18;100.00;94998.50;4991896;28;20088;-57
2021/11/02 03:49:32;;;;;;;3.20;3.00;;;;;;;9.11;100.00;95001.00;4970713;28;20076;-56
2021/11/02 03:54:54;;;;;;;5.15;3.42;;;;;;;9.15;100.00;95001.47;5031030;28;20078;-57
2021/11/02 03:57:36;;;;;;;3.33;3.10;;;;;;;9.38;100.00;95001.53;5009990;28;20073;-59
2021/11/02 04:34:10;;;;;;;6.45;3.70;;;;;;;8.64;100.00;95008.91;4990193;28;20058;-54
2021/11/02 05:07:46;;;;;;;6.40;3.90;;;;;;;8.35;100.00;95015.50;5000057;28;20078;-55
2021/11/02 05:10:41;;;;;;;4.38;3.80;;;;;;;8.40;100.00;95015.03;5010357;28;20088;-55
2021/11/02 05:46:56;;;;;;;5.18;3.70;;;;;;;8.33;100.00;95007.78;5028876;28;20069;-57
2021/11/02 05:49:37;;;;;;;4.30;3.90;;;;;;;8.40;100.00;95021.13;5029342;28;20515;-57
2021/11/02 05:55:14;;;;;;;7.15;4.35;;;;;;;8.29;100.00;95024.88;5028785;28;20073;-54
2021/11/02 05:57:48;;;;;;;3.50;3.22;;;;;;;8.21;100.00;95039.81;5009808;28;20116;-54
2021/11/02 06:00:19;;;;;;;4.35;3.95;;;;;;;7.84;100.00;95039.31;4991685;28;20094;-57
2021/11/02 06:28:33;;;;;;;3.75;3.45;;;;;;;8.47;100.00;95039.66;5006105;28;20073;-53
2021/11/02 06:31:07;;;;;;;3.83;3.47;;;;;;;8.57;100.00;95035.03;5008384;28;20064;-57
2021/11/02 06:33:44;;;;;;;5.22;3.55;;;;;;;8.68;100.00;95034.69;5002859;28;20209;-55
2021/11/02 06:36:24;;;;;;;3.88;3.58;;;;;;;8.78;100.00;95034.50;5009738;28;20097;-57
2021/11/02 06:45:16;;;;;;;5.03;4.55;;;;;;;8.97;100.00;95031.47;4972298;28;20590;-58
2021/11/02 06:53:52;;;;;;;4.28;3.95;;;;;;;9.13;100.00;95046.38;5007294;28;20065;-59
2021/11/02 07:19:18;;;;;;;4.85;4.35;;;;;;;9.58;100.00;95052.72;5025240;28;20060;-56
2021/11/02 07:21:56;;;;;;;4.75;4.18;;;;;;;9.63;100.00;95054.84;5027238;28;20068;-55
2021/11/02 07:24:31;;;;;;;5.45;4.13;;;;;;;9.54;100.00;95054.06;5006747;28;20452;-53
2021/11/02 07:27:11;;;;;;;6.70;4.18;;;;;;;10.07;100.00;95056.84;5019143;28;20299;-58
2021/11/02 08:45:42;;;;;;;4.75;2.90;;;;;;;11.66;100.00;95051.28;5024267;28;20088;-54
2021/11/02 08:48:10;;;;;;;4.53;3.00;;;;;;;12.05;100.00;95058.84;4990261;28;20512;-55
2021/11/02 08:50:41;;;;;;;3.25;2.83;;;;;;;11.83;100.00;95052.69;4990203;28;20437;-57
2021/11/02 08:53:13;;;;;;;4.20;2.97;;;;;;;11.82;100.00;95047.59;4990042;28;20573;-57
2021/11/02 08:55:43;;;;;;;3.30;2.70;;;;;;;11.23;100.00;95053.81;5000119;28;20062;-52
2021/11/02 08:58:12;;;;;;;4.40;2.80;;;;;;;11.83;100.00;95052.69;5009834;28;20089;-56
2021/11/02 09:00:42;;;;;;;3.83;2.70;;;;;;;11.86;100.00;95049.69;5004148;28;20066;-53
2021/11/02 09:03:16;;;;;;;3.53;2.72;;;;;;;11.80;100.00;95052.22;5010001;28;20512;-56
2021/11/02 09:05:48;;;;;;;3.10;2.80;;;;;;;11.98;100.00;95052.69;5009611;28;20069;-56
2021/11/02 09:08:21;;;;;;;3.10;2.80;;;;;;;12.84;100.00;95042.00;5009536;28;20057;-57
2021/11/02 09:10:50;;;;;;;3.20;2.75;;;;;;;12.54;100.00;95044.03;5009565;28;20064;-55
2021/11/02 09:13:23;;;;;;;4.00;2.45;;;;;;;12.05;100.00;95052.75;5009132;28;20697;-57
2021/11/02 09:15:54;;;;;;;5.68;2.58;;;;;;;12.53;100.00;95042.41;5015320;28;20077;-57
2021/11/02 09:18:24;;;;;;;4.07;2.33;;;;;;;12.83;100.00;95037.72;5020205;28;20074;-53
2021/11/02 09:20:53;;;;;;;3.50;2.10;;;;;;;12.07;100.00;95038.31;5009986;28;20070;-57
2021/11/02 09:23:23;;;;;;;5.45;2.28;;;;;;;12.46;100.00;95034.41;5009847;28;20057;-54
2021/11/02 09:25:52;;;;;;;2.33;2.00;;;;;;;12.04;100.00;95041.38;5009088;28;20070;-54
2021/11/02 09:28:21;;;;;;;6.65;2.30;;;;;;;12.16;100.00;95044.31;5009288;28;20523;-57
2021/11/02 09:30:50;;;;;;;3.60;2.20;;;;;;;12.02;100.00;95053.94;5009069;28;20073;-55
2021/11/02 09:33:19;;;;;;;2.78;2.20;;;;;;;12.05;100.00;95048.28;5011150;28;20084;-55
2021/11/02 09:35:53;;;;;;;2.25;2.03;;;;;;;12.42;100.00;95048.19;5009280;28;20069;-57
2021/11/02 09:38:26;;;;;;;4.25;2.42;;;;;;;12.11;100.00;95044.03;5041000;28;20078;-58
2021/11/02 09:41:38;;;;;;;3.90;2.00;;;;;;;11.90;100.00;95044.84;5009044;28;20065;-53
2021/11/02 09:44:55;;;;;;;3.08;1.95;;;;;;;12.16;100.00;95044.31;5007130;28;20471;-56
2021/11/02 09:47:52;;;;;;;2.60;1.90;;;;;;;12.48;100.00;95037.66;5009200;28;20046;-56
2021/11/02 09:50:40;;;;;;;2.95;2.00;;;;;;;12.57;100.00;95033.88;5008187;28;20073;-57
2021/11/02 09:53:53;;;;;;;1.80;1.70;;;;;;;12.45;100.00;95030.13;5009052;28;20081;-55
2021/11/02 09:56:37;;;;;;;4.78;1.83;;;;;;;12.63;100.00;95042.88;5007004;28;20072;-57
2021/11/02 09:59:45;;;;;;;2.78;1.80;;;;;;;12.68;100.00;95032.53;5009047;28;20065;-55
2021/11/02 10:02:42;;;;;;;2.45;1.60;;;;;;;11.91;100.00;95033.31;5009134;28;20069;-55
2021/11/02 10:05:21;;;;;;;2.75;1.50;;;;;;;12.37;100.00;95026.81;4978801;28;20084;-54
2021/11/02 10:08:14;;;;;;;3.22;1.65;;;;;;;12.36;100.00;95026.00;5007467;28;20061;-57
2021/11/02 10:10:56;;;;;;;4.22;1.80;;;;;;;12.97;100.00;95022.75;5007010;28;20138;-57
2021/11/02 10:13:36;;;;;;;1.90;1.50;;;;;;;12.63;100.00;95027.03;5009325;28;20061;-57
2021/11/02 10:16:15;;;;;;;2.72;1.48;;;;;;;12.41;100.00;95020.94;5007802;28;20453;-55
2021/11/02 10:19:08;;;;;;;1.60;1.50;;;;;;;12.28;100.00;95023.47;5008922;28;20077;-59
2021/11/02 10:22:15;;;;;;;1.85;1.60;;;;;;;12.48;100.00;95013.88;5009235;28;20082;-55
2021/11/02 10:25:06;;;;;;;3.45;1.88;;;;;;;12.73;100.00;95011.63;5027653;28;20531;-58
2021/11/02 10:28:16;;;;;;;1.70;1.60;;;;;;;12.66;100.00;95009.94;5028499;28;20081;-57
2021/11/02 10:30:54;;;;;;;1.48;1.38;;;;;;;12.96;100.00;95006.06;5011229;28;20081;-59
2021/11/02 10:33:30;;;;;;;5.90;1.70;;;;;;;13.12;100.00;94997.00;5011715;28;20085;-56
2021/11/02 10:36:18;;;;;;;2.35;1.80;;;;;;;13.13;100.00;94998.63;4968930;28;20332;-56
2021/11/02 10:39:02;;;;;;;3.72;1.90;;;;;;;13.10;100.00;95004.28;4982614;28;20070;-53
2021/11/02 10:41:39;;;;;;;1.73;1.60;;;;;;;12.99;100.00;95003.03;4996986;28;20066;-56
2021/11/02 10:44:20;;;;;;;3.72;1.75;;;;;;;13.61;100.00;94995.97;5007906;28;20072;-59
2021/11/02 10:46:59;;;;;;;2.17;1.60;;;;;;;13.56;100.00;94997.59;5008185;28;20077;-58
2021/11/02 10:49:30;;;;;;;2.38;2.00;;;;;;;13.65;100.00;94991.91;5008525;28;20084;-58
2021/11/02 10:52:03;;;;;;;3.88;1.70;;;;;;;13.43;100.00;95001.84;5008400;28;20069;-56
2021/11/02 10:54:51;;;;;;;3.08;1.50;;;;;;;13.93;100.00;95006.84;5002924;28;20089;-54
2021/11/02 10:57:31;;;;;;;4.15;1.52;;;;;;;13.36;100.00;95003.66;5007005;28;20337;-53
2021/11/02 11:00:05;;;;;;;4.22;1.50;;;;;;;13.75;100.00;95002.94;4987593;28;21271;-54
2021/11/02 11:02:35;;;;;;;3.55;1.70;;;;;;;13.90;100.00;95002.78;5019988;28;20072;-60
2021/11/02 11:05:05;;;;;;;4.10;1.77;;;;;;;14.38;100.00;94993.84;4998102;28;20069;-56
2021/11/02 11:07:36;;;;;;;1.50;1.40;;;;;;;14.17;100.00;95003.63;4992981;28;20069;-59
2021/11/02 11:10:07;;;;;;;2.05;1.50;;;;;;;14.54;100.00;94997.97;4995741;28;20069;-58
2021/11/02 11:12:37;;;;;;;2.67;1.50;;;;;;;14.08;100.00;95001.41;5007834;28;20081;-58
2021/11/02 11:15:07;;;;;;;;;;;;;;;13.77;100.00;95002.75;5021821;28;20057;-57
2021/11/02 11:17:37;;;;;;;2.65;1.50;;;;;;;13.87;100.00;94999.72;5028060;28;19952;-56
2021/11/02 11:20:11;;;;;;;2.08;1.67;;;;;;;14.01;100.00;95007.50;5027157;28;20543;-57
2021/11/02 11:22:41;;;;;;;2.28;1.40;;;;;;;13.98;100.00;95007.91;5026583;28;20495;-58
2021/11/02 11:25:13;;;;;;;2.50;1.52;;;;;;;13.59;100.00;94999.84;5027645;28;20061;-58
2021/11/02 11:27:46;;;;;;;1.98;1.40;;;;;;;13.76;100.00;95001.09;5020882;28;20092;-58
2021/11/02 11:30:17;;;;;;;2.22;1.48;;;;;;;13.63;100.00;94995.81;4990516;28;20460;-58
2021/11/02 11:32:48;;;;;;;2.08;1.50;;;;;;;13.84;100.00;95000.94;4988030;28;20073;-56
2021/11/02 11:35:17;;;;;;;2.28;1.75;;;;;;;13.95;100.00;95004.84;5002329;28;20653;-58
2021/11/02 11:37:48;;;;;;;2.97;1.80;;;;;;;13.79;100.00;95000.72;5007749;28;20062;-57
2021/11/02 11:40:19;;;;;;;3.47;1.90;;;;;;;14.05;100.00;94994.66;5012419;28;20065;-59
2021/11/02 11:42:49;;;;;;;3.42;1.70;;;;;;;13.45;100.00;94998.97;5026845;28;20103;-57
2021/11/02 11:45:19;;;;;;;4.57;1.40;;;;;;;13.64;100.00;94997.41;5029018;28;20085;-56
2021/11/02 11:48:04;;;;;;;1.77;1.30;;;;;;;13.75;100.00;94997.66;5027259;28;20072;-54
2021/11/02 11:50:33;;;;;;;2.13;1.42;;;;;;;13.86;100.00;94992.78;4991816;28;20081;-59
2021/11/02 11:53:03;;;;;;;2.47;1.50;;;;;;;13.78;100.00;94997.25;4987433;28;20077;-56
2021/11/02 11:55:33;;;;;;;1.98;1.40;;;;;;;14.36;100.00;95001.22;4974651;28;20595;-57
2021/11/02 11:58:08;;;;;;;2.47;1.40;;;;;;;14.08;100.00;94996.09;4971683;28;20115;-59
2021/11/02 12:00:38;;;;;;;1.98;1.40;;;;;;;14.07;100.00;95005.03;5000887;28;20558;-55
2021/11/02 12:03:32;;;;;;;1.63;1.42;;;;;;;14.24;100.00;94999.13;5020108;28;20081;-59
2021/11/02 12:06:04;;;;;;;3.47;1.38;;;;;;;13.64;100.00;95002.72;4975880;28;21362;-59
2021/11/02 12:08:42;;;;;;;2.65;1.60;;;;;;;13.22;100.00;95008.03;5000783;28;20066;-57
2021/11/02 12:11:12;;;;;;;2.20;1.58;;;;;;;13.26;100.00;95011.13;4970558;28;20063;-59
2021/11/02 12:13:41;;;;;;;4.07;1.70;;;;;;;12.76;100.00;95015.69;4972099;28;20114;-58
2021/11/02 12:16:21;;;;;;;2.38;1.75;;;;;;;12.76;100.00;95013.06;4998082;28;20053;-58
2021/11/02 12:18:55;;;;;;;;;;;;;;;13.23;100.00;95004.38;5031268;28;20141;-58
2021/11/02 12:21:27;;;;;;;4.97;1.60;;;;;;;13.22;100.00;95008.03;5032586;28;19967;-49
2021/11/02 12:24:01;;;;;;;2.33;1.40;;;;;;;12.61;100.00;95015.81;5030500;28;20069;-56
2021/11/02 12:26:44;;;;;;;1.95;1.38;;;;;;;12.82;100.00;95007.81;5030021;28;20107;-59
2021/11/02 12:29:19;;;;;;;1.55;1.40;;;;;;;12.65;100.00;95021.53;5030507;28;20045;-57
2021/11/02 12:31:55;;;;;;;2.15;1.40;;;;;;;12.37;100.00;95014.41;4999127;28;20101;-58
2021/11/02 12:34:27;;;;;;;3.45;1.58;;;;;;;12.25;100.00;95022.03;4972006;28;20395;-56
2021/11/02 12:36:58;;;;;;;1.63;1.30;;;;;;;12.49;100.00;95019.97;4991113;28;20054;-57
2021/11/02 12:39:31;;;;;;;1.67;1.40;;;;;;;12.26;100.00;95017.56;4992789;28;20105;-54
2021/11/02 12:42:02;;;;;;;2.63;1.48;;;;;;;12.62;100.00;95022.72;4990737;28;20463;-52
2021/11/02 12:44:32;;;;;;;2.80;1.50;;;;;;;12.39;100.00;95025.63;5006302;28;20072;-53
2021/11/02 12:47:01;;;;;;;1.98;1.50;;;;;;;13.09;100.00;95017.75;4995612;28;20521;-55
2021/11/02 12:49:38;;;;;;;4.37;1.50;;;;;;;13.36;100.00;95024.00;4990753;28;20058;-58
2021/11/02 12:52:08;;;;;;;1.90;1.40;;;;;;;13.14;100.00;95020.59;4990372;28;20076;-56
2021/11/02 12:54:37;;;;;;;3.17;1.60;;;;;;;13.43;100.00;95016.91;5022506;28;20078;-60
2021/11/02 12:57:09;;;;;;;2.00;1.60;;;;;;;13.38;100.00;95014.03;5012126;28;20085;-58
2021/11/02 12:59:47;;;;;;;2.38;1.42;;;;;;;13.18;100.00;95022.69;4992894;28;20551;-57
2021/11/02 13:02:20;;;;;;;2.65;1.20;;;;;;;13.39;100.00;95011.19;4989254;28;20072;-58
2021/11/02 13:04:59;;;;;;;1.83;1.40;;;;;;;13.26;100.00;95013.78;5000776;28;20062;-58
2021/11/02 13:07:28;;;;;;;1.77;1.40;;;;;;;13.57;100.00;95025.72;5003166;28;20066;-58
2021/11/02 13:09:57;;;;;;;3.47;1.52;;;;;;;13.54;100.00;95019.78;4990388;28;20743;-53
2021/11/02 13:12:27;;;;;;;4.28;1.40;;;;;;;13.82;100.00;95024.16;4992152;28;20453;-58
2021/11/02 13:15:02;;;;;;;1.45;1.35;;;;;;;13.37;100.00;95017.69;4990334;28;20072;-57
2021/11/02 13:17:42;;;;;;;2.10;1.40;;;;;;;13.74;100.00;95014.56;4990224;28;20110;-57
2021/11/02 13:20:14;;;;;;;2.58;1.40;;;;;;;13.75;100.00;95018.84;4989199;28;20058;-56
2021/11/02 13:22:52;;;;;;;1.52;1.30;;;;;;;13.04;100.00;95024.44;4989691;28;20070;-58
2021/11/02 13:25:24;;;;;;;1.55;1.40;;;;;;;13.23;100.00;95016.78;4989172;28;20058;-51
2021/11/02 13:27:55;;;;;;;1.98;1.42;;;;;;;13.15;100.00;95024.91;4992888;28;20468;-58
2021/11/02 13:30:25;;;;;;;2.20;1.40;;;;;;;13.09;100.00;95017.75;4998171;28;20546;-56
2021/11/02 13:32:58;;;;;;;1.63;1.52;;;;;;;13.05;100.00;95012.00;5013977;28;20066;-52
2021/11/02 13:35:47;;;;;;;1.98;1.40;;;;;;;12.85;100.00;95019.03;4993757;28;20069;-55
2021/11/02 13:38:28;;;;;;;1.67;1.30;;;;;;;12.62;100.00;95013.97;4990231;28;20074;-55
2021/11/02 13:40:58;;;;;;;1.58;1.48;;;;;;;13.15;100.00;95014.31;4999675;28;20465;-58
2021/11/02 13:43:28;;;;;;;1.40;1.30;;;;;;;13.32;100.00;95015.66;5001119;28;20107;-58
2021/11/02 13:45:57;;;;;;;1.40;1.30;;;;;;;13.58;100.00;95020.22;5008843;28;20077;-54
2021/11/02 13:48:29;;;;;;;1.58;1.30;;;;;;;13.43;100.00;95012.44;5011679;28;20089;-55
2021/11/02 13:51:00;;;;;;;1.77;1.60;;;;;;;13.05;100.00;95012.84;5008586;28;20309;-54
2021/11/02 13:53:33;;;;;;;1.40;1.30;;;;;;;13.40;100.00;95020.75;5009615;28;20536;-53
2021/11/02 13:56:03;;;;;;;1.40;1.30;;;;;;;13.62;100.00;95013.50;5009211;28;20065;-57
2021/11/02 13:58:32;;;;;;;1.92;1.60;;;;;;;12.99;100.00;95021.53;5019922;28;20073;-57
2021/11/02 14:01:02;;;;;;;1.33;1.23;;;;;;;13.15;100.00;95020.41;5018834;28;20069;-53
2021/11/02 14:03:33;;;;;;;1.60;1.50;;;;;;;13.23;100.00;95022.06;5010737;28;20073;-53
2021/11/02 14:06:03;;;;;;;1.40;1.30;;;;;;;13.22;100.00;95023.91;5007503;28;20481;-57
2021/11/02 14:08:34;;;;;;;1.40;1.30;;;;;;;12.98;100.00;95025.22;5009209;28;20073;-55
2021/11/02 14:11:02;;;;;;;1.90;1.30;;;;;;;12.92;100.00;95022.53;5008717;28;20156;-57
2021/11/02 14:13:44;;;;;;;1.67;1.40;;;;;;;13.24;100.00;95023.75;5008554;28;20092;-57
2021/11/02 14:16:14;;;;;;;1.40;1.30;;;;;;;13.56;100.00;95021.41;5008681;28;20065;-56
2021/11/02 14:18:43;;;;;;;1.35;1.30;;;;;;;12.97;100.00;95022.75;5008502;28;20078;-58
2021/11/02 14:21:13;;;;;;;1.40;1.30;;;;;;;13.58;100.00;95014.09;5010435;28;20077;-54
2021/11/02 14:23:46;;;;;;;1.40;1.30;;;;;;;13.47;100.00;95015.50;5008396;28;20077;-57
2021/11/02 14:26:23;;;;;;;1.52;1.42;;;;;;;14.22;100.00;95005.69;5007976;28;20073;-53
2021/11/02 14:28:56;;;;;;;1.33;1.23;;;;;;;13.69;100.00;95016.16;5008729;28;20089;-57
2021/11/02 14:31:45;;;;;;;1.40;1.20;;;;;;;13.25;100.00;95023.56;5008222;28;20493;-56
2021/11/02 14:34:50;;;;;;;1.50;1.40;;;;;;;13.11;100.00;95021.81;5007636;28;20062;-57
2021/11/02 14:37:23;;;;;;;1.42;1.33;;;;;;;13.75;100.00;95018.03;5007809;28;20058;-54
2021/11/02 14:40:00;;;;;;;1.45;1.30;;;;;;;13.76;100.00;95014.34;4999843;28;20559;-57
2021/11/02 14:42:37;;;;;;;1.30;1.20;;;;;;;13.25;100.00;95018.25;5009404;28;20081;-58
2021/11/02 14:45:07;;;;;;;1.23;1.20;;;;;;;13.49;100.00;95014.28;5007659;28;21360;-55
2021/11/02 14:47:36;;;;;;;1.17;1.17;;;;;;;13.70;100.00;95012.53;4988804;28;20077;-59
2021/11/02 14:50:07;;;;;;;1.40;1.30;;;;;;;13.24;100.00;95019.25;4988608;28;20062;-52
2021/11/02 14:52:37;;;;;;;1.42;1.33;;;;;;;12.82;100.00;95022.88;5004157;28;20081;-55
2021/11/02 14:55:06;;;;;;;1.30;1.30;;;;;;;13.21;100.00;95024.09;5013466;28;20481;-50
2021/11/02 14:57:37;;;;;;;1.50;1.38;;;;;;;12.85;100.00;95014.53;5007483;28;20073;-57
2021/11/02 15:00:07;;;;;;;1.42;1.30;;;;;;;13.35;100.00;95017.91;5010418;28;20089;-54
2021/11/02 15:02:38;;;;;;;1.40;1.30;;;;;;;12.41;100.00;95015.66;5007611;28;20066;-56
2021/11/02 15:05:10;;;;;;;;;;;;;;;12.51;100.00;95024.06;5008316;28;20413;-58
2021/11/02 15:07:42;;;;;;;2.28;1.77;;;;;;;12.48;100.00;95023.63;5007870;28;19967;-57
2021/11/02 15:10:12;;;;;;;1.40;1.30;;;;;;;12.72;100.00;95020.56;5010467;28;20088;-57
2021/11/02 15:12:45;;;;;;;1.60;1.50;;;;;;;12.22;100.00;95029.53;5007535;28;20057;-58
2021/11/02 15:15:14;;;;;;;1.50;1.40;;;;;;;12.18;100.00;95026.47;5009821;28;20085;-59
2021/11/02 15:17:43;;;;;;;1.58;1.48;;;;;;;12.11;100.00;95036.13;5007159;28;20547;-58
2021/11/02 15:20:27;;;;;;;2.00;1.70;;;;;;;11.94;100.00;95035.56;5007189;28;20057;-57
2021/11/02 15:22:57;;;;;;;1.50;1.40;;;;;;;11.79;100.00;95034.75;5007204;28;20076;-58
2021/11/02 15:25:27;;;;;;;1.60;1.50;;;;;;;11.84;100.00;95037.72;5007499;28;20085;-56
2021/11/02 15:27:59;;;;;;;2.45;1.60;;;;;;;12.08;100.00;95034.69;5007630;28;20082;-60
2021/11/02 15:30:28;;;;;;;1.60;1.50;;;;;;;12.24;100.00;95032.78;5009947;28;20089;-59
2021/11/02 15:32:57;;;;;;;2.10;1.60;;;;;;;11.73;100.00;95038.13;5007120;28;20066;-58
2021/11/02 15:35:26;;;;;;;1.70;1.60;;;;;;;11.55;100.00;95047.28;4999164;28;20065;-58
2021/11/02 15:37:58;;;;;;;1.70;1.60;;;;;;;11.62;100.00;95050.00;4992339;28;20077;-57
2021/11/02 15:40:36;;;;;;;1.60;1.50;;;;;;;11.03;100.00;95055.34;4987561;28;20754;-57
2021/11/02 15:43:07;;;;;;;1.80;1.70;;;;;;;11.20;100.00;95053.34;4968171;28;20066;-58
2021/11/02 15:45:37;;;;;;;1.80;1.70;;;;;;;10.97;100.00;95056.88;4968799;28;20078;-56
2021/11/02 15:48:08;;;;;;;1.80;1.70;;;;;;;10.88;100.00;95053.53;4989841;28;20541;-56
2021/11/02 15:50:41;;;;;;;2.95;1.70;;;;;;;11.02;100.00;95054.53;4983680;28;20069;-58
2021/11/02 15:53:12;;;;;;;1.90;1.80;;;;;;;10.96;100.00;95063.19;4999416;28;20069;-56
2021/11/02 15:55:40;;;;;;;;;;;;;;;10.71;100.00;95054.69;5007265;28;20069;-57
2021/11/02 15:58:10;;;;;;;2.00;1.80;;;;;;;10.73;100.00;95067.69;5007074;28;20391;-56
2021/11/02 16:00:40;;;;;;;1.80;1.70;;;;;;;10.64;100.00;95067.78;5006834;28;20073;-51
2021/11/02 16:03:10;;;;;;;1.80;1.70;;;;;;;10.55;100.00;95068.03;4987904;28;20082;-56
2021/11/02 16:05:42;;;;;;;3.10;1.70;;;;;;;10.59;100.00;95074.56;4987684;28;20066;-52
2021/11/02 16:08:17;;;;;;;2.67;1.92;;;;;;;10.52;100.00;95074.47;4968305;28;20067;-53
2021/11/02 16:10:46;;;;;;;1.90;1.77;;;;;;;10.63;100.00;95081.13;4977667;28;20081;-54
2021/11/02 16:13:25;;;;;;;2.38;2.00;;;;;;;10.51;100.00;95080.75;5001025;28;20062;-52
2021/11/02 16:15:54;;;;;;;2.15;1.90;;;;;;;10.54;100.00;95090.13;4986948;28;20096;-53
2021/11/02 16:18:32;;;;;;;2.20;2.00;;;;;;;10.70;100.00;95092.59;4982378;28;20574;-57
2021/11/02 16:21:03;;;;;;;2.22;2.03;;;;;;;10.40;100.00;95097.00;4984823;28;20470;-57
2021/11/02 16:23:40;;;;;;;;;;;;;;;10.25;100.00;95093.44;4984449;28;20074;-57
2021/11/02 16:26:13;;;;;;;2.10;1.90;;;;;;;10.36;100.00;95091.25;4990704;28;20577;-53
2021/11/02 16:28:42;;;;;;;2.10;1.95;;;;;;;10.37;100.00;95098.16;5016179;28;20069;-55